createdAt,value
2023-05-18T00:00:10.828Z,12.54
2023-05-18T00:02:42.841Z,12.55
2023-05-18T00:05:12.359Z,12.52
2023-05-18T00:07:43.389Z,12.44
2023-05-18T00:10:14.254Z,12.39
2023-05-18T00:12:43.824Z,12.35
2023-05-18T00:15:13.327Z,12.29
2023-05-18T00:17:48.383Z,12.19
2023-05-18T00:20:18.274Z,12.13
2023-05-18T00:22:47.881Z,12.05
2023-05-18T00:25:17.333Z,11.95
2023-05-18T00:27:49.052Z,11.90
2023-05-18T00:30:18.418Z,11.97
2023-05-18T00:32:49.691Z,11.97
2023-05-18T00:35:19.681Z,11.94
2023-05-18T00:37:50.004Z,11.92
2023-05-18T00:40:19.809Z,11.95
2023-05-18T00:42:49.259Z,11.95
2023-05-18T00:45:20.385Z,11.78
2023-05-18T00:47:57.134Z,11.91
2023-05-18T00:50:27.444Z,11.85
2023-05-18T00:52:57.413Z,11.81
2023-05-18T00:55:27.620Z,11.81
2023-05-18T00:57:58.785Z,11.83
2023-05-18T01:00:28.656Z,11.85
2023-05-18T01:03:01.877Z,11.83
2023-05-18T01:05:36.754Z,11.80
2023-05-18T01:08:06.173Z,11.76
2023-05-18T01:10:38.787Z,11.72
2023-05-18T01:13:13.182Z,11.77
2023-05-18T01:15:53.986Z,11.77
2023-05-18T01:18:38.215Z,11.78
2023-05-18T01:21:21.770Z,11.77
2023-05-18T01:24:06.378Z,11.76
2023-05-18T01:26:50.932Z,11.73
2023-05-18T01:29:22.850Z,11.76
2023-05-18T01:31:52.341Z,11.80
2023-05-18T01:34:21.702Z,11.88
2023-05-18T01:36:51.665Z,11.92
2023-05-18T01:39:26.004Z,11.96
2023-05-18T01:42:07.552Z,12.01
2023-05-18T01:44:46.903Z,12.06
2023-05-18T01:47:18.010Z,12.05
2023-05-18T01:49:58.745Z,12.12
2023-05-18T01:52:34.048Z,12.15
2023-05-18T01:55:11.673Z,12.18
2023-05-18T01:57:47.528Z,12.26
2023-05-18T02:00:19.579Z,12.29
2023-05-18T02:02:51.657Z,12.23
2023-05-18T02:05:21.403Z,12.45
2023-05-18T02:07:51.233Z,12.55
2023-05-18T02:10:29.625Z,12.56
2023-05-18T02:13:06.744Z,12.65
2023-05-18T02:15:36.480Z,12.70
2023-05-18T02:18:08.009Z,12.76
2023-05-18T02:20:37.813Z,12.91
2023-05-18T02:23:06.993Z,12.89
2023-05-18T02:25:36.867Z,12.87
2023-05-18T02:28:13.554Z,12.94
2023-05-18T02:30:43.132Z,12.96
2023-05-18T02:33:12.658Z,13.07
2023-05-18T02:35:42.752Z,13.09
2023-05-18T02:38:12.237Z,13.19
2023-05-18T02:40:41.664Z,13.27
2023-05-18T02:43:17.599Z,13.33
2023-05-18T02:45:48.219Z,13.36
2023-05-18T02:48:18.354Z,13.42
2023-05-18T02:50:50.988Z,13.45
2023-05-18T02:53:20.971Z,13.48
2023-05-18T02:55:53.776Z,13.53
2023-05-18T02:58:43.377Z,13.60
2023-05-18T03:01:20.704Z,13.70
2023-05-18T03:03:53.594Z,13.78
2023-05-18T03:06:26.057Z,13.84
2023-05-18T03:09:01.079Z,13.95
2023-05-18T03:11:44.081Z,14.04
2023-05-18T03:14:21.520Z,14.16
2023-05-18T03:16:53.466Z,14.28
2023-05-18T03:19:28.966Z,14.40
2023-05-18T03:21:58.337Z,14.45
2023-05-18T03:24:40.266Z,14.51
2023-05-18T03:27:16.310Z,14.54
2023-05-18T03:29:48.901Z,14.62
2023-05-18T03:32:18.110Z,14.80
2023-05-18T03:34:48.754Z,15.02
2023-05-18T03:37:19.006Z,15.36
2023-05-18T03:39:48.405Z,15.80
2023-05-18T03:42:19.945Z,16.34
2023-05-18T03:44:56.575Z,16.68
2023-05-18T03:47:27.437Z,16.99
2023-05-18T03:50:09.973Z,17.16
2023-05-18T03:52:41.197Z,17.31
2023-05-18T03:55:15.730Z,17.41
2023-05-18T03:57:44.995Z,17.42
2023-05-18T04:00:17.375Z,17.50
2023-05-18T04:02:51.371Z,17.55
2023-05-18T04:05:30.390Z,17.66
2023-05-18T04:07:59.994Z,17.71
2023-05-18T04:10:29.412Z,17.81
2023-05-18T04:12:59.068Z,17.84
2023-05-18T04:15:30.908Z,17.94
2023-05-18T04:18:01.844Z,18.12
2023-05-18T04:20:31.970Z,18.29
2023-05-18T04:23:01.331Z,18.44
2023-05-18T04:25:35.855Z,18.59
2023-05-18T04:28:05.041Z,18.72
2023-05-18T04:30:37.819Z,18.94
2023-05-18T04:33:08.641Z,19.06
2023-05-18T04:35:58.588Z,19.13
2023-05-18T04:38:28.304Z,19.27
2023-05-18T04:41:00.170Z,19.26
2023-05-18T04:43:30.105Z,19.33
2023-05-18T04:46:01.755Z,19.39
2023-05-18T04:48:33.072Z,19.40
2023-05-18T04:51:06.539Z,19.46
2023-05-18T04:53:38.688Z,19.60
2023-05-18T04:56:09.234Z,19.72
2023-05-18T04:58:38.739Z,19.79
2023-05-18T05:01:12.616Z,19.87
2023-05-18T05:03:42.297Z,19.96
2023-05-18T05:06:12.069Z,20.06
2023-05-18T05:08:47.948Z,20.15
2023-05-18T05:11:17.870Z,20.17
2023-05-18T05:13:52.386Z,20.19
2023-05-18T05:16:23.750Z,20.20
2023-05-18T05:18:54.253Z,20.25
2023-05-18T05:21:23.692Z,20.28
2023-05-18T05:24:04.534Z,20.25
2023-05-18T05:26:34.923Z,20.24
2023-05-18T05:29:04.437Z,20.23
2023-05-18T05:31:36.058Z,20.28
2023-05-18T05:34:06.057Z,20.31
2023-05-18T05:36:35.414Z,20.25
2023-05-18T05:39:05.251Z,20.32
2023-05-18T05:41:35.395Z,20.34
2023-05-18T05:44:04.841Z,20.38
2023-05-18T05:46:36.307Z,20.40
2023-05-18T05:49:06.426Z,20.48
2023-05-18T05:51:35.788Z,20.53
2023-05-18T05:54:06.126Z,20.57
2023-05-18T05:56:36.361Z,20.60
2023-05-18T05:59:05.948Z,20.64
2023-05-18T06:01:37.535Z,20.68
2023-05-18T06:04:15.643Z,20.72
2023-05-18T06:06:45.552Z,20.73
2023-05-18T06:09:15.738Z,20.80
2023-05-18T06:11:48.146Z,20.85
2023-05-18T06:14:23.896Z,20.91
2023-05-18T06:16:56.666Z,20.93
2023-05-18T06:19:27.200Z,21.02
2023-05-18T06:21:56.717Z,21.08
2023-05-18T06:24:29.076Z,21.10
2023-05-18T06:27:36.902Z,21.19
2023-05-18T06:30:37.308Z,21.25
2023-05-18T06:33:20.772Z,21.29
2023-05-18T06:35:50.348Z,21.30
2023-05-18T06:38:22.401Z,21.41
2023-05-18T06:40:57.042Z,21.32
2023-05-18T06:43:28.116Z,21.50
2023-05-18T06:46:07.697Z,21.55
2023-05-18T06:48:51.107Z,21.61
2023-05-18T06:51:25.823Z,21.64
2023-05-18T06:53:57.335Z,21.71
2023-05-18T06:56:38.383Z,21.80
2023-05-18T06:59:07.908Z,21.86
2023-05-18T07:01:37.889Z,21.93
2023-05-18T07:04:09.821Z,21.94
2023-05-18T07:06:38.828Z,22.08
2023-05-18T07:09:08.445Z,22.07
2023-05-18T07:11:45.044Z,22.12
2023-05-18T07:14:14.525Z,22.13
2023-05-18T07:16:43.996Z,22.14
2023-05-18T07:19:16.134Z,22.27
2023-05-18T07:21:45.582Z,22.34
2023-05-18T07:24:14.867Z,22.46
2023-05-18T07:26:44.266Z,22.59
2023-05-18T07:29:18.700Z,22.72
2023-05-18T07:31:48.178Z,22.82
2023-05-18T07:34:19.879Z,23.11
2023-05-18T07:36:57.420Z,23.36
2023-05-18T07:39:28.995Z,23.46
2023-05-18T07:42:04.008Z,23.45
2023-05-18T07:44:33.708Z,23.24
2023-05-18T07:47:03.293Z,23.27
2023-05-18T07:49:40.445Z,23.29
2023-05-18T07:52:10.106Z,23.03
2023-05-18T07:54:39.645Z,22.95
2023-05-18T07:57:09.074Z,22.86
2023-05-18T07:59:51.263Z,22.92
2023-05-18T08:02:27.366Z,22.93
2023-05-18T08:04:59.036Z,22.79
2023-05-18T08:07:30.052Z,22.72
2023-05-18T08:09:59.435Z,22.79
2023-05-18T08:12:29.648Z,22.86
2023-05-18T08:14:59.247Z,22.98
2023-05-18T08:17:28.630Z,23.06
2023-05-18T08:20:11.343Z,23.13
2023-05-18T08:22:40.987Z,23.02
2023-05-18T08:27:48.533Z,23.29
2023-05-18T08:30:21.142Z,23.43
2023-05-18T08:32:56.619Z,23.52
2023-05-18T08:35:28.209Z,23.54
2023-05-18T08:37:57.700Z,23.38
2023-05-18T08:40:35.631Z,23.32
2023-05-18T08:43:18.803Z,23.34
2023-05-18T08:46:05.874Z,23.41
2023-05-18T08:48:41.155Z,23.35
2023-05-18T08:51:14.044Z,23.35
2023-05-18T08:53:53.718Z,23.42
2023-05-18T08:56:32.677Z,23.56
2023-05-18T08:59:07.374Z,23.51
2023-05-18T09:01:37.388Z,23.46
2023-05-18T09:04:12.959Z,23.37
2023-05-18T09:06:44.614Z,23.37
2023-05-18T09:09:15.915Z,23.54
2023-05-18T09:11:46.549Z,23.52
2023-05-18T09:14:25.975Z,23.73
2023-05-18T09:16:56.103Z,23.87
2023-05-18T09:19:26.073Z,23.87
2023-05-18T09:21:57.261Z,23.91
2023-05-18T09:24:38.491Z,23.81
2023-05-18T09:27:08.283Z,23.61
2023-05-18T09:29:37.583Z,23.45
2023-05-18T09:32:13.044Z,23.22
2023-05-18T09:34:45.227Z,23.37
2023-05-18T09:37:18.818Z,23.61
2023-05-18T09:40:01.311Z,23.84
2023-05-18T09:42:39.777Z,23.93
2023-05-18T09:45:19.068Z,23.95
2023-05-18T09:47:48.913Z,23.93
2023-05-18T09:50:21.145Z,23.92
2023-05-18T09:52:53.095Z,23.87
2023-05-18T09:55:22.764Z,23.86
2023-05-18T09:57:53.343Z,23.85
2023-05-18T10:00:25.549Z,23.86
2023-05-18T10:02:56.185Z,23.92
2023-05-18T10:05:35.692Z,23.83
2023-05-18T10:08:07.618Z,23.80
2023-05-18T10:13:21.309Z,23.90
2023-05-18T10:15:53.924Z,23.94
2023-05-18T10:18:25.875Z,24.13
2023-05-18T10:20:59.866Z,24.22
2023-05-18T10:23:38.743Z,24.31
2023-05-18T10:26:10.136Z,24.23
2023-05-18T10:28:49.987Z,24.20
2023-05-18T10:31:19.567Z,24.16
2023-05-18T10:33:49.671Z,24.18
2023-05-18T10:36:20.455Z,24.25
2023-05-18T10:38:52.197Z,24.46
2023-05-18T10:41:24.450Z,24.55
2023-05-18T10:44:03.337Z,24.53
2023-05-18T10:46:33.314Z,24.59
2023-05-18T10:49:12.908Z,24.68
2023-05-18T10:51:46.050Z,24.66
2023-05-18T10:54:19.123Z,24.75
2023-05-18T10:56:56.210Z,24.93
2023-05-18T10:59:26.054Z,25.17
2023-05-18T11:01:56.497Z,25.11
2023-05-18T11:04:27.056Z,24.99
2023-05-18T11:06:59.618Z,24.86
2023-05-18T11:09:32.165Z,24.75
2023-05-18T11:14:37.954Z,24.58
2023-05-18T11:17:21.993Z,24.51
2023-05-18T11:20:20.910Z,24.48
2023-05-18T11:22:53.454Z,24.45
2023-05-18T11:25:50.833Z,24.48
2023-05-18T11:28:29.649Z,24.44
2023-05-18T11:30:59.056Z,24.46
2023-05-18T11:33:30.653Z,24.50
2023-05-18T11:36:03.737Z,24.50
2023-05-18T11:38:49.104Z,24.58
2023-05-18T11:41:36.550Z,24.68
2023-05-18T11:44:09.874Z,24.68
2023-05-18T11:46:39.317Z,24.66
2023-05-18T11:49:10.157Z,24.68
2023-05-18T11:52:09.061Z,24.68
2023-05-18T11:54:43.072Z,24.61
2023-05-18T11:57:15.780Z,24.67
2023-05-18T11:59:46.995Z,24.71
2023-05-18T12:02:26.547Z,24.74
2023-05-18T12:05:02.087Z,24.73
2023-05-18T12:07:33.506Z,24.68
2023-05-18T12:10:02.772Z,24.73
2023-05-18T12:12:35.544Z,24.61
2023-05-18T12:15:06.704Z,24.67
2023-05-18T12:17:42.758Z,24.76
2023-05-18T12:20:21.034Z,24.78
2023-05-18T12:22:52.738Z,24.83
2023-05-18T12:25:29.724Z,24.77
2023-05-18T12:28:01.877Z,24.71
2023-05-18T12:30:36.108Z,24.66
2023-05-18T12:33:11.725Z,24.63
2023-05-18T12:35:46.079Z,24.63
2023-05-18T12:38:24.900Z,24.60
2023-05-18T12:40:55.544Z,24.55
2023-05-18T12:43:27.414Z,24.74
2023-05-18T12:51:34.969Z,25.01
2023-05-18T12:54:04.835Z,25.07
2023-05-18T12:56:53.079Z,25.29
2023-05-18T12:59:29.150Z,25.43
2023-05-18T13:01:58.854Z,25.56
2023-05-18T13:04:36.180Z,25.57
2023-05-18T13:07:07.586Z,25.52
2023-05-18T13:09:36.939Z,25.57
2023-05-18T13:12:07.718Z,25.53
2023-05-18T13:14:43.452Z,25.54
2023-05-18T13:17:24.665Z,25.60
2023-05-18T13:19:59.726Z,25.59
2023-05-18T13:22:30.962Z,25.65
2023-05-18T13:25:00.360Z,25.74
2023-05-18T13:27:31.235Z,25.81
2023-05-18T13:30:00.572Z,25.87
2023-05-18T13:32:30.017Z,25.85
2023-05-18T13:34:59.438Z,25.82
2023-05-18T13:37:30.962Z,25.80
2023-05-18T13:40:00.275Z,25.82
2023-05-18T13:42:34.829Z,25.84
2023-05-18T13:45:04.198Z,25.79
2023-05-18T13:47:33.580Z,25.71
2023-05-18T13:50:02.766Z,25.51
2023-05-18T13:52:34.345Z,25.37
2023-05-18T13:55:10.685Z,25.20
2023-05-18T13:57:41.771Z,25.02
2023-05-18T14:00:13.459Z,25.03
2023-05-18T14:02:43.403Z,25.05
2023-05-18T14:05:13.693Z,24.92
2023-05-18T14:07:45.517Z,24.92
2023-05-18T14:10:15.478Z,24.92
2023-05-18T14:12:44.594Z,25.01
2023-05-18T14:15:15.341Z,25.03
2023-05-18T14:17:45.185Z,25.08
2023-05-18T14:20:14.921Z,25.18
2023-05-18T14:22:46.208Z,25.28
2023-05-18T14:25:15.224Z,25.46
2023-05-18T14:27:46.505Z,25.29
2023-05-18T14:30:15.693Z,25.39
2023-05-18T14:32:44.969Z,25.34
2023-05-18T14:35:14.322Z,25.33
2023-05-18T14:40:25.036Z,25.18
2023-05-18T14:42:54.216Z,25.01
2023-05-18T14:45:23.701Z,24.98
2023-05-18T14:47:53.098Z,24.98
2023-05-18T14:50:23.091Z,25.03
2023-05-18T14:52:54.673Z,25.07
2023-05-18T14:55:24.599Z,25.10
2023-05-18T14:57:53.798Z,25.19
2023-05-18T15:00:23.838Z,25.25
2023-05-18T15:02:53.076Z,25.22
2023-05-18T15:05:22.544Z,25.33
2023-05-18T15:08:03.853Z,25.36
2023-05-18T15:10:33.279Z,25.43
2023-05-18T15:13:02.749Z,25.45
2023-05-18T15:15:32.242Z,25.32
2023-05-18T15:18:01.563Z,25.32
2023-05-18T15:20:36.797Z,25.28
2023-05-18T15:23:08.886Z,25.24
2023-05-18T15:25:54.442Z,24.93
2023-05-18T15:28:23.691Z,24.78
2023-05-18T15:30:54.122Z,24.68
2023-05-18T15:33:28.693Z,24.66
2023-05-18T15:36:03.003Z,24.62
2023-05-18T15:38:34.086Z,24.85
2023-05-18T15:41:03.521Z,25.26
2023-05-18T15:43:33.380Z,25.51
2023-05-18T15:46:02.789Z,25.84
2023-05-18T15:48:32.690Z,26.02
2023-05-18T15:51:02.064Z,26.19
2023-05-18T15:53:31.480Z,26.00
2023-05-18T15:56:07.907Z,25.93
2023-05-18T15:58:37.531Z,25.82
2023-05-18T16:01:07.043Z,25.48
2023-05-18T16:03:42.910Z,25.59
2023-05-18T16:06:12.661Z,25.57
2023-05-18T16:08:41.954Z,25.74
2023-05-18T16:11:18.081Z,25.33
2023-05-18T16:13:49.774Z,25.11
2023-05-18T16:16:19.402Z,25.02
2023-05-18T16:18:49.550Z,24.85
2023-05-18T16:21:19.998Z,24.67
2023-05-18T16:23:56.168Z,24.20
2023-05-18T16:26:28.018Z,23.68
2023-05-18T16:28:57.377Z,23.22
2023-05-18T16:31:27.926Z,22.93
2023-05-18T16:33:57.267Z,22.58
2023-05-18T16:36:26.710Z,22.31
2023-05-18T16:38:56.073Z,22.05
2023-05-18T16:41:38.199Z,21.98
2023-05-18T16:44:07.801Z,21.71
2023-05-18T16:46:37.169Z,21.48
2023-05-18T16:51:42.047Z,21.17
2023-05-18T16:54:11.759Z,21.04
2023-05-18T16:56:43.144Z,20.85
2023-05-18T16:59:12.544Z,20.76
2023-05-18T17:01:48.183Z,20.65
2023-05-18T17:04:17.757Z,20.53
2023-05-18T17:06:54.148Z,20.38
2023-05-18T17:09:23.819Z,20.27
2023-05-18T17:12:00.105Z,20.21
2023-05-18T17:14:29.450Z,20.16
2023-05-18T17:16:58.644Z,20.06
2023-05-18T17:19:33.078Z,19.94
2023-05-18T17:22:02.455Z,19.80
2023-05-18T17:24:36.948Z,19.71
2023-05-18T17:27:08.663Z,19.62
2023-05-18T17:29:49.216Z,19.55
2023-05-18T17:32:18.482Z,19.47
2023-05-18T17:34:47.653Z,19.41
2023-05-18T17:37:19.013Z,19.40
2023-05-18T17:39:48.234Z,19.27
2023-05-18T17:42:21.317Z,19.23
2023-05-18T17:44:51.286Z,19.21
2023-05-18T17:47:31.284Z,19.10
2023-05-18T17:50:00.976Z,19.03
2023-05-18T17:52:30.228Z,18.94
2023-05-18T17:55:04.601Z,18.86
2023-05-18T17:57:35.982Z,18.79
2023-05-18T18:00:06.862Z,18.84
2023-05-18T18:02:41.017Z,18.71
2023-05-18T18:05:16.128Z,18.59
2023-05-18T18:07:50.657Z,18.48
2023-05-18T18:10:20.682Z,18.38
2023-05-18T18:12:52.050Z,18.38
2023-05-18T18:15:28.796Z,18.38
2023-05-18T18:17:58.167Z,18.41
2023-05-18T18:20:28.771Z,18.37
2023-05-18T18:25:33.683Z,18.28
2023-05-18T18:28:05.051Z,18.29
2023-05-18T18:30:34.493Z,18.31
2023-05-18T18:33:03.798Z,18.34
2023-05-18T18:35:33.348Z,18.37
2023-05-18T18:38:03.749Z,18.35
2023-05-18T18:40:33.574Z,18.15
2023-05-18T18:43:05.305Z,18.07
2023-05-18T18:45:40.756Z,18.03
2023-05-18T18:50:51.064Z,17.94
2023-05-18T18:53:21.544Z,17.88
2023-05-18T18:55:51.297Z,17.85
2023-05-18T18:58:24.125Z,17.81
2023-05-18T19:00:54.169Z,17.75
2023-05-18T19:03:29.141Z,17.70
2023-05-18T19:05:58.729Z,17.61
2023-05-18T19:08:28.249Z,17.50
2023-05-18T19:11:02.810Z,17.41
2023-05-18T19:13:34.280Z,17.28
2023-05-18T19:16:04.057Z,17.25
2023-05-18T19:18:33.917Z,17.19
2023-05-18T19:21:03.543Z,17.20
2023-05-18T19:23:32.800Z,17.20
2023-05-18T19:26:02.107Z,17.11
2023-05-18T19:28:31.429Z,16.96
2023-05-18T19:31:03.841Z,16.88
2023-05-18T19:33:33.975Z,16.83
2023-05-18T19:36:03.471Z,16.80
2023-05-18T19:38:32.871Z,16.75
2023-05-18T19:41:02.372Z,16.69
2023-05-18T19:43:31.822Z,16.68
2023-05-18T19:46:03.348Z,16.57
2023-05-18T19:48:33.058Z,16.69
2023-05-18T19:51:06.673Z,16.52
2023-05-18T19:53:36.266Z,16.30
2023-05-18T19:56:05.882Z,16.33
2023-05-18T19:58:45.426Z,16.27
2023-05-18T20:01:18.339Z,16.30
2023-05-18T20:03:49.520Z,16.21
2023-05-18T20:06:19.237Z,16.13
2023-05-18T20:08:48.807Z,16.08
2023-05-18T20:11:29.725Z,16.05
2023-05-18T20:13:59.353Z,16.06
2023-05-18T20:16:33.568Z,16.02
2023-05-18T20:19:09.208Z,15.97
2023-05-18T20:21:40.248Z,15.97
2023-05-18T20:24:09.788Z,15.85
2023-05-18T20:26:39.204Z,15.95
2023-05-18T20:29:14.060Z,15.95
2023-05-18T20:31:45.453Z,15.93
2023-05-18T20:34:20.305Z,16.01
2023-05-18T20:36:49.866Z,15.91
2023-05-18T20:39:19.350Z,15.84
2023-05-18T20:41:54.117Z,15.81
2023-05-18T20:44:27.429Z,15.78
2023-05-18T20:47:00.767Z,15.71
2023-05-18T20:49:30.287Z,15.66
2023-05-18T20:51:59.771Z,15.65
2023-05-18T20:54:29.335Z,15.64
2023-05-18T20:56:59.686Z,15.65
2023-05-18T20:59:35.710Z,15.58
2023-05-18T21:02:07.743Z,15.54
2023-05-18T21:04:37.413Z,15.57
2023-05-18T21:07:09.547Z,15.51
2023-05-18T21:09:38.940Z,15.46
2023-05-18T21:12:09.252Z,15.47
2023-05-18T21:14:43.867Z,15.42
2023-05-18T21:17:15.625Z,15.42
2023-05-18T21:19:52.032Z,15.33
2023-05-18T21:22:21.435Z,15.35
2023-05-18T21:24:50.800Z,15.28
2023-05-18T21:27:20.284Z,15.32
2023-05-18T21:29:49.572Z,15.26
2023-05-18T21:32:21.010Z,15.18
2023-05-18T21:34:50.646Z,15.14
2023-05-18T21:37:20.041Z,15.11
2023-05-18T21:39:54.604Z,15.13
2023-05-18T21:42:28.991Z,15.07
2023-05-18T21:44:58.365Z,14.97
2023-05-18T21:47:29.800Z,14.93
2023-05-18T21:52:45.226Z,14.93
2023-05-18T21:55:14.634Z,14.89
2023-05-18T21:57:44.511Z,14.88
2023-05-18T22:00:17.702Z,14.85
2023-05-18T22:02:49.006Z,14.81
2023-05-18T22:05:18.510Z,14.84
2023-05-18T22:07:48.084Z,14.76
2023-05-18T22:10:31.099Z,14.76
2023-05-18T22:13:05.992Z,14.71
2023-05-18T22:15:37.084Z,14.73
2023-05-18T22:18:19.227Z,14.73
2023-05-18T22:20:49.382Z,14.70
2023-05-18T22:23:18.660Z,14.70
2023-05-18T22:28:32.882Z,14.70
2023-05-18T22:31:02.696Z,14.73
2023-05-18T22:33:39.535Z,14.75
2023-05-18T22:36:09.281Z,14.77
2023-05-18T22:38:42.820Z,14.86
2023-05-18T22:41:12.148Z,14.87
2023-05-18T22:43:41.429Z,14.88
2023-05-18T22:46:10.964Z,14.90
2023-05-18T22:48:42.447Z,14.82
2023-05-18T22:53:47.006Z,14.88
2023-05-18T22:56:20.693Z,14.90
2023-05-18T22:58:56.174Z,14.90
2023-05-18T23:01:25.510Z,14.90
2023-05-18T23:03:57.262Z,14.96
2023-05-18T23:06:26.321Z,15.08
2023-05-18T23:08:55.537Z,15.05
2023-05-18T23:11:34.656Z,15.07
2023-05-18T23:14:04.062Z,15.01
2023-05-18T23:16:33.994Z,14.98
2023-05-18T23:19:05.434Z,14.99
2023-05-18T23:21:40.504Z,15.01
2023-05-18T23:26:46.855Z,14.97
2023-05-18T23:29:16.293Z,14.97
2023-05-18T23:31:45.864Z,14.98
2023-05-18T23:34:17.675Z,15.03
2023-05-18T23:36:52.992Z,15.08
2023-05-18T23:39:29.069Z,15.14
2023-05-18T23:42:06.014Z,15.20
2023-05-18T23:44:36.188Z,15.28
2023-05-18T23:47:16.817Z,15.29
2023-05-18T23:49:54.673Z,15.34
2023-05-18T23:52:27.455Z,15.37
2023-05-18T23:54:58.365Z,15.36
2023-05-18T23:57:28.406Z,15.40
2023-05-18T23:59:58.141Z,15.45
